Aérodrome :
LOGIN :

S'inscrire | Disclaimer

   EN    FR    IT 

 










Légende :    VFR   VFR Marginal   IFR   IFR Intensif   IFR Très Intensif
Visi : 
Plafond : 
>= 8 km
>= 3000ft
5 à 8 km
1000 à 3000 ft
1500m à 5 km
500 à 1000 ft
800 à 1500m
200 à 500 ft
< 800m
< 200 ft
Symboles :   Orages  Brouillard  Fortes neiges  Fortes précipitations  Vent > 20 kt
SIGMETs :   Divers  Orages  Givrage  Turbulence  Onde Orograph.  Cendres Volcan.






- Altitude de l'aérodrome : 195 ft


LFMY - Salon de Provence

DERNIER METAR :
  • 101130Z AUTO 23007KT 190V250 CAVOK 22/M00 Q1023

METARs EXPIRÉS :
  • 101100Z AUTO 23006KT 200V260 CAVOK 21/M02 Q1023 NOSIG
  • 101030Z AUTO 22006KT CAVOK 21/M00 Q1023 NOSIG
  • 101000Z AUTO VRB03KT CAVOK 21/04 Q1023 NOSIG
  • 100930Z AUTO VRB02KT CAVOK 20/04 Q1023 BECMG 19012KT
  • 100900Z AUTO 00000KT CAVOK 19/04 Q1023 BECMG 19012KT
  • 100830Z AUTO 00000KT CAVOK 18/04 Q1023 BECMG 19012KT

TAF TAF LFMY
Valide du 10 à 09h jusqu'au 11 à 09h UTC


100919Z 1009/1109 VRB02KT CAVOK
BECMG 1009/1010 19012KT
BECMG 1017/1019 VRB02KT



MET'MAP, la Météo Aéronautique d'un coup d'oeil ! - Copyright ORBIFLY Décembre 2007 - Disclaimer

ORBIFLY MET'MAP TEAM :

Programmation & Développement : Alexandra Zaïnal
Sur une idée originale de : Baudouin d'Aumeries
Assistance à la programmation : Marc-Olivier Méhu
Soutien technique & logistique : Manuel Goepfert

Contact : metmap@orbifly.com




SOURCES & CREDITS :

   NOAA